createdAt,value
2019-03-04T00:01:24.163Z,1.8
2019-03-04T00:06:20.769Z,0.9
2019-03-04T00:11:17.631Z,1.6
2019-03-04T00:16:13.990Z,0.6
2019-03-04T00:21:10.477Z,0.2
2019-03-04T00:26:07.048Z,0
2019-03-04T00:31:03.220Z,-0.6
2019-03-04T00:35:59.501Z,-0.8
2019-03-04T00:40:56.447Z,0.5
2019-03-04T00:45:52.997Z,-1.1
2019-03-04T00:50:49.466Z,-1.5
2019-03-04T00:55:45.809Z,-1.6
2019-03-04T01:00:42.436Z,-1.1
2019-03-04T01:05:39.207Z,-1.1
2019-03-04T01:10:35.445Z,-2
2019-03-04T01:15:32.146Z,-2.1
2019-03-04T01:20:28.942Z,-1.6
2019-03-04T01:25:25.702Z,-2
2019-03-04T01:30:22.623Z,-1.6
2019-03-04T01:35:19.323Z,-1.5
2019-03-04T01:40:15.922Z,-2.2
2019-03-04T01:45:12.518Z,-2.5
2019-03-04T01:50:08.618Z,-2.2
2019-03-04T01:55:04.920Z,-1.6
2019-03-04T02:00:00.598Z,-2.5
2019-03-04T02:04:56.607Z,-2.4
2019-03-04T02:09:52.093Z,-2.7
2019-03-04T02:14:48.327Z,-2.5
2019-03-04T02:19:44.499Z,-2.5
2019-03-04T02:24:41.022Z,-2.4
2019-03-04T02:29:37.406Z,-1.8
2019-03-04T02:34:33.893Z,-2.6
2019-03-04T02:39:30.350Z,-3
2019-03-04T02:44:27.089Z,-2.7
2019-03-04T02:49:22.630Z,-2.9
2019-03-04T02:54:19.134Z,-1.9
2019-03-04T02:59:15.569Z,-2.2
2019-03-04T03:04:12.213Z,-3.2
2019-03-04T03:09:08.321Z,-3.2
2019-03-04T03:14:04.669Z,-3.3
2019-03-04T03:19:01.276Z,-2.6
2019-03-04T03:23:59.234Z,-3.1
2019-03-04T03:28:55.536Z,-3.3
2019-03-04T03:33:51.932Z,-3.2
2019-03-04T03:38:48.391Z,-2.8
2019-03-04T03:43:45.066Z,-2.8
2019-03-04T03:48:40.863Z,-3.5
2019-03-04T03:53:37.310Z,-3.4
2019-03-04T03:58:33.844Z,-2.8
2019-03-04T04:03:30.323Z,-3.3
2019-03-04T04:08:26.794Z,-3.6
2019-03-04T04:13:23.167Z,-3.7
2019-03-04T04:18:19.962Z,-3.6
2019-03-04T04:23:16.293Z,-3.7
2019-03-04T04:28:12.899Z,-3.3
2019-03-04T04:33:09.304Z,-3.8
2019-03-04T04:38:05.713Z,-3.7
2019-03-04T04:43:02.156Z,-3.8
2019-03-04T04:47:58.916Z,-3.1
2019-03-04T04:52:55.539Z,-3.7
2019-03-04T04:57:52.118Z,-3.4
2019-03-04T05:02:48.739Z,-3.8
2019-03-04T05:07:45.615Z,-3.7
2019-03-04T05:12:42.082Z,-3.7
2019-03-04T05:17:39.741Z,-2.9
2019-03-04T05:22:36.518Z,-3.5
2019-03-04T05:27:33.313Z,-2.6
2019-03-04T05:32:29.867Z,-3
2019-03-04T05:37:26.970Z,-2.8
2019-03-04T05:42:24.609Z,-2.3
2019-03-04T05:47:21.656Z,-2.6
2019-03-04T05:52:18.171Z,-0.7
2019-03-04T05:57:16.875Z,-1.6
2019-03-04T06:02:16.831Z,1.4
2019-03-04T06:07:13.635Z,1
2019-03-04T06:12:10.012Z,0.2
2019-03-04T06:17:08.399Z,0.3
2019-03-04T06:22:03.330Z,2.2
2019-03-04T06:26:57.686Z,0.1
2019-03-04T06:31:54.650Z,0.7
2019-03-04T06:36:53.023Z,0.5
2019-03-04T06:41:49.073Z,0.1
2019-03-04T06:46:45.601Z,1.4
2019-03-04T06:51:42.673Z,1.5
2019-03-04T06:56:38.967Z,1.9
2019-03-04T07:01:35.533Z,1.4
2019-03-04T07:06:32.334Z,1
2019-03-04T07:11:28.960Z,0.7
2019-03-04T07:16:26.124Z,0.8
2019-03-04T07:21:23.422Z,2.2
2019-03-04T07:26:20.429Z,2.2
2019-03-04T07:31:16.263Z,2.4
2019-03-04T07:36:12.983Z,2.3
2019-03-04T07:41:09.690Z,2.9
2019-03-04T07:46:06.822Z,3.2
2019-03-04T07:51:03.499Z,4
2019-03-04T07:56:01.144Z,4.6
2019-03-04T08:00:57.392Z,2.9
2019-03-04T08:05:55.039Z,5.1
2019-03-04T08:10:51.241Z,4.3
2019-03-04T08:15:48.600Z,6.3
2019-03-04T08:20:45.261Z,6.1
2019-03-04T08:25:42.996Z,6.5
2019-03-04T08:30:39.885Z,7.2
2019-03-04T08:35:37.298Z,8.3
2019-03-04T08:40:34.231Z,7.5
2019-03-04T08:45:31.525Z,6.6
2019-03-04T08:50:28.753Z,8.5
2019-03-04T08:55:27.175Z,8.9
2019-03-04T09:00:23.700Z,8.3
2019-03-04T09:05:21.747Z,8.9
2019-03-04T09:10:17.436Z,8.7
2019-03-04T09:15:14.474Z,9.1
2019-03-04T09:20:11.511Z,9.5
2019-03-04T09:25:07.690Z,9.4
2019-03-04T09:30:05.526Z,10.9
2019-03-04T09:35:01.170Z,10
2019-03-04T09:39:57.577Z,9.7
2019-03-04T09:44:55.212Z,9.5
2019-03-04T09:49:51.190Z,10.4
2019-03-04T09:54:48.285Z,9.8
2019-03-04T09:59:49.058Z,10.8
2019-03-04T10:04:45.384Z,11.6
2019-03-04T10:09:42.277Z,10.5
2019-03-04T10:14:39.872Z,12.5
2019-03-04T10:19:34.270Z,10.9
2019-03-04T10:24:33.409Z,12.6
2019-03-04T10:29:30.442Z,11.2
2019-03-04T10:34:27.233Z,12.5
2019-03-04T10:39:24.533Z,13.6
2019-03-04T10:44:20.985Z,12.4
2019-03-04T10:49:18.221Z,12.5
2019-03-04T10:54:14.999Z,12.2
2019-03-04T10:59:13.439Z,13.9
2019-03-04T11:04:09.956Z,12.8
2019-03-04T11:09:07.258Z,14.9
2019-03-04T11:14:04.431Z,13.2
2019-03-04T11:19:01.233Z,14.4
2019-03-04T11:23:58.930Z,14.5
2019-03-04T11:28:56.212Z,14.7
2019-03-04T11:33:51.908Z,14.6
2019-03-04T11:38:48.736Z,14.7
2019-03-04T11:43:46.132Z,14.3
2019-03-04T11:48:42.334Z,14.4
2019-03-04T11:53:39.165Z,13.6
2019-03-04T11:58:36.725Z,14.7
2019-03-04T12:03:33.716Z,14.7
2019-03-04T12:08:29.679Z,14
2019-03-04T12:13:26.147Z,13.5
2019-03-04T12:18:23.271Z,14.2
2019-03-04T12:23:20.234Z,14.9
2019-03-04T12:28:16.856Z,13.9
2019-03-04T12:33:14.071Z,15.1
2019-03-04T12:38:11.149Z,14.9
2019-03-04T12:43:07.377Z,14.6
2019-03-04T12:48:04.081Z,13.9
2019-03-04T12:53:00.809Z,13.8
2019-03-04T12:57:57.987Z,14.5
2019-03-04T13:02:57.766Z,14.6
2019-03-04T13:07:53.999Z,14
2019-03-04T13:12:51.198Z,14.7
2019-03-04T13:17:47.905Z,14.7
2019-03-04T13:22:44.780Z,14.9
2019-03-04T13:27:41.431Z,14.5
2019-03-04T13:32:39.182Z,14.9
2019-03-04T13:37:37.910Z,14.9
2019-03-04T13:42:34.237Z,14.3
2019-03-04T13:47:31.380Z,14.7
2019-03-04T13:52:28.663Z,13.8
2019-03-04T13:57:25.582Z,14.9
2019-03-04T14:02:22.608Z,14.7
2019-03-04T14:07:19.489Z,14.6
2019-03-04T14:12:16.511Z,13.8
2019-03-04T14:17:13.539Z,14.1
2019-03-04T14:22:10.793Z,14.2
2019-03-04T14:27:07.506Z,14.2
2019-03-04T14:32:03.534Z,13.3
2019-03-04T14:37:00.405Z,12.9
2019-03-04T14:41:57.067Z,13.4
2019-03-04T14:46:53.936Z,13.1
2019-03-04T14:51:50.399Z,12.4
2019-03-04T14:56:47.492Z,12.4
2019-03-04T15:01:43.811Z,11.9
2019-03-04T15:06:40.526Z,12.6
2019-03-04T15:11:37.196Z,12.6
2019-03-04T15:16:33.695Z,11.6
2019-03-04T15:21:30.450Z,11.4
2019-03-04T15:26:27.593Z,11.3
2019-03-04T15:31:26.219Z,11.5
2019-03-04T15:36:22.472Z,11.1
2019-03-04T15:41:19.363Z,11.5
2019-03-04T15:46:16.178Z,11.1
2019-03-04T15:51:12.748Z,10.7
2019-03-04T15:56:10.007Z,11.4
2019-03-04T16:01:06.755Z,10.8
2019-03-04T16:06:03.376Z,10.4
2019-03-04T16:10:59.676Z,10.6
2019-03-04T16:15:56.292Z,10
2019-03-04T16:20:53.323Z,10
2019-03-04T16:25:49.519Z,9.4
2019-03-04T16:30:46.085Z,9.3
2019-03-04T16:35:42.670Z,9.6
2019-03-04T16:40:39.506Z,9.5
2019-03-04T16:45:36.283Z,9.5
2019-03-04T16:50:32.942Z,9.2
2019-03-04T16:55:29.364Z,9.3
2019-03-04T17:00:26.103Z,9.1
2019-03-04T17:05:22.640Z,8.9
2019-03-04T17:10:19.403Z,8.6
2019-03-04T17:15:16.076Z,9.1
2019-03-04T17:20:13.243Z,8.8
2019-03-04T17:25:09.892Z,8.9
2019-03-04T17:30:06.815Z,8.6
2019-03-04T17:35:03.697Z,8.9
2019-03-04T17:40:00.393Z,9
2019-03-04T17:44:56.768Z,9.3
2019-03-04T17:49:53.196Z,8.7
2019-03-04T17:54:49.921Z,9
2019-03-04T17:59:46.588Z,7.8
2019-03-04T18:04:43.300Z,8
2019-03-04T18:09:39.804Z,8.7
2019-03-04T18:14:36.348Z,8.7
2019-03-04T18:19:32.958Z,8.3
2019-03-04T18:24:29.492Z,8.2
2019-03-04T18:29:26.411Z,8.4
2019-03-04T18:34:22.885Z,8.3
2019-03-04T18:39:19.500Z,8.2
2019-03-04T18:44:16.445Z,8.5
2019-03-04T18:49:13.098Z,7.9
2019-03-04T18:54:09.352Z,8.1
2019-03-04T18:59:06.057Z,7.9
2019-03-04T19:04:02.888Z,8.1
2019-03-04T19:08:59.686Z,8.1
2019-03-04T19:13:56.456Z,8.1
2019-03-04T19:18:52.831Z,8.2
2019-03-04T19:23:49.685Z,8.2
2019-03-04T19:28:46.173Z,8.1
2019-03-04T19:33:42.897Z,6.9
2019-03-04T19:38:39.437Z,7.7
2019-03-04T19:43:36.457Z,6.9
2019-03-04T19:48:33.074Z,7.6
2019-03-04T19:53:29.864Z,7.9
2019-03-04T19:58:26.598Z,7.7
2019-03-04T20:03:23.710Z,7
2019-03-04T20:08:20.490Z,7.8
2019-03-04T20:13:17.012Z,7.6
2019-03-04T20:18:13.857Z,8
2019-03-04T20:23:10.481Z,7.9
2019-03-04T20:28:07.181Z,7.7
2019-03-04T20:33:03.587Z,7.6
2019-03-04T20:38:00.405Z,7.6
2019-03-04T20:42:56.970Z,7.6
2019-03-04T20:47:53.495Z,7.4
2019-03-04T20:52:50.458Z,6.2
2019-03-04T20:57:46.882Z,7.5
2019-03-04T21:02:43.716Z,7.7
2019-03-04T21:07:40.237Z,7.6
2019-03-04T21:12:37.132Z,6.5
2019-03-04T21:17:33.978Z,7.4
2019-03-04T21:22:30.975Z,7.4
2019-03-04T21:27:27.350Z,7.2
2019-03-04T21:32:23.916Z,7.3
2019-03-04T21:37:20.227Z,7
2019-03-04T21:42:16.744Z,6.4
2019-03-04T21:47:13.081Z,6.5
2019-03-04T21:52:19.433Z,6.2
2019-03-04T21:57:15.217Z,6.4
2019-03-04T22:02:11.788Z,5.5
2019-03-04T22:07:08.098Z,5.7
2019-03-04T22:12:03.781Z,4.3
2019-03-04T22:17:00.459Z,3.3
2019-03-04T22:21:57.036Z,3.8
2019-03-04T22:26:53.429Z,3.6
2019-03-04T22:31:50.093Z,3.4
2019-03-04T22:36:47.418Z,3.8
2019-03-04T22:41:44.296Z,3.7
2019-03-04T22:46:41.086Z,3.4
2019-03-04T22:51:37.094Z,3.4
2019-03-04T22:56:34.106Z,3.6
2019-03-04T23:01:30.168Z,2.7
2019-03-04T23:06:26.627Z,2.4
2019-03-04T23:11:23.126Z,1.5
2019-03-04T23:16:19.739Z,1.5
2019-03-04T23:21:16.279Z,2
2019-03-04T23:26:12.896Z,2.4
2019-03-04T23:31:09.249Z,1.9
2019-03-04T23:36:05.124Z,1.5
2019-03-04T23:41:00.970Z,0.8
2019-03-04T23:45:57.612Z,1.3
2019-03-04T23:50:54.283Z,0.8
2019-03-04T23:55:50.736Z,0.6
